createdAt,value
2022-10-02T00:01:48.156Z,8.60
2022-10-02T00:04:24.691Z,8.60
2022-10-02T00:06:56.030Z,8.60
2022-10-02T00:09:31.603Z,8.80
2022-10-02T00:12:01.277Z,8.70
2022-10-02T00:14:35.173Z,8.70
2022-10-02T00:17:04.561Z,8.80
2022-10-02T00:19:34.443Z,8.80
2022-10-02T00:22:37.710Z,8.90
2022-10-02T00:25:13.962Z,8.90
2022-10-02T00:27:54.754Z,8.90
2022-10-02T00:30:22.981Z,9.00
2022-10-02T00:33:02.140Z,9.10
2022-10-02T00:35:53.055Z,9.20
2022-10-02T00:38:34.702Z,9.30
2022-10-02T00:41:30.206Z,9.40
2022-10-02T00:44:11.497Z,9.60
2022-10-02T00:46:46.443Z,9.60
2022-10-02T00:49:33.359Z,9.70
2022-10-02T00:52:15.230Z,9.70
2022-10-02T00:54:57.799Z,9.80
2022-10-02T00:57:37.890Z,9.80
2022-10-02T01:00:10.557Z,9.90
2022-10-02T01:02:48.739Z,9.90
2022-10-02T01:05:17.085Z,10.00
2022-10-02T01:07:50.470Z,10.00
2022-10-02T01:10:18.889Z,10.10
2022-10-02T01:12:46.937Z,10.20
2022-10-02T01:15:16.290Z,10.20
2022-10-02T01:17:44.431Z,10.20
2022-10-02T01:20:18.021Z,10.20
2022-10-02T01:22:53.559Z,10.30
2022-10-02T01:25:23.007Z,10.30
2022-10-02T01:27:53.162Z,10.40
2022-10-02T01:30:22.709Z,10.40
2022-10-02T01:32:56.159Z,10.30
2022-10-02T01:35:27.399Z,10.40
2022-10-02T01:37:56.906Z,10.50
2022-10-02T01:40:28.752Z,10.40
2022-10-02T01:42:59.952Z,10.40
2022-10-02T01:45:40.699Z,10.50
2022-10-02T01:48:16.595Z,10.50
2022-10-02T01:50:54.590Z,10.60
2022-10-02T01:53:33.097Z,10.60
2022-10-02T01:56:10.098Z,10.60
2022-10-02T01:58:50.138Z,10.60
2022-10-02T02:01:28.852Z,10.70
2022-10-02T02:04:04.310Z,10.70
2022-10-02T02:06:41.394Z,10.70
2022-10-02T02:09:16.871Z,10.70
2022-10-02T02:11:54.714Z,10.80
2022-10-02T02:14:28.612Z,10.80
2022-10-02T02:17:02.683Z,10.80
2022-10-02T02:19:35.809Z,10.80
2022-10-02T02:22:10.261Z,10.80
2022-10-02T02:24:42.425Z,10.90
2022-10-02T02:27:15.728Z,10.90
2022-10-02T02:29:47.183Z,11.00
2022-10-02T02:32:19.687Z,11.00
2022-10-02T02:34:52.938Z,11.10
2022-10-02T02:37:24.259Z,11.10
2022-10-02T02:39:56.665Z,11.20
2022-10-02T02:42:30.763Z,11.20
2022-10-02T02:45:02.897Z,11.20
2022-10-02T02:47:37.924Z,11.30
2022-10-02T02:50:12.588Z,11.20
2022-10-02T02:52:48.726Z,11.30
2022-10-02T02:55:20.616Z,11.40
2022-10-02T02:57:55.681Z,11.30
2022-10-02T03:00:25.442Z,11.30
2022-10-02T03:02:54.642Z,11.40
2022-10-02T03:05:24.709Z,11.40
2022-10-02T03:07:55.382Z,11.40
2022-10-02T03:10:33.858Z,11.40
2022-10-02T03:13:13.839Z,11.40
2022-10-02T03:15:53.061Z,11.60
2022-10-02T03:18:33.151Z,11.40
2022-10-02T03:21:12.469Z,11.50
2022-10-02T03:23:53.987Z,11.50
2022-10-02T03:26:30.791Z,11.50
2022-10-02T03:29:03.951Z,11.50
2022-10-02T03:31:34.431Z,11.50
2022-10-02T03:34:04.166Z,11.50
2022-10-02T03:36:32.595Z,11.50
2022-10-02T03:39:24.090Z,11.50
2022-10-02T03:41:51.937Z,11.60
2022-10-02T03:44:21.625Z,11.60
2022-10-02T03:46:49.784Z,11.60
2022-10-02T03:49:18.183Z,11.60
2022-10-02T03:51:46.193Z,11.60
2022-10-02T03:54:18.478Z,11.70
2022-10-02T03:56:55.820Z,11.60
2022-10-02T03:59:35.919Z,11.70
2022-10-02T04:02:08.565Z,11.70
2022-10-02T04:04:45.315Z,11.70
2022-10-02T04:07:19.034Z,11.70
2022-10-02T04:09:52.981Z,11.70
2022-10-02T04:12:25.214Z,11.70
2022-10-02T04:14:59.918Z,11.70
2022-10-02T04:17:33.626Z,11.80
2022-10-02T04:20:07.788Z,11.70
2022-10-02T04:22:40.734Z,11.80
2022-10-02T04:25:15.339Z,11.80
2022-10-02T04:27:48.987Z,11.80
2022-10-02T04:30:20.541Z,11.80
2022-10-02T04:32:49.321Z,11.90
2022-10-02T04:35:19.110Z,12.00
2022-10-02T04:38:03.210Z,11.90
2022-10-02T04:40:50.550Z,11.90
2022-10-02T04:43:35.153Z,11.80
2022-10-02T04:46:16.775Z,11.90
2022-10-02T04:49:05.353Z,11.80
2022-10-02T04:51:50.614Z,11.80
2022-10-02T04:54:49.824Z,11.80
2022-10-02T04:57:35.096Z,11.80
2022-10-02T05:00:10.297Z,11.80
2022-10-02T05:02:51.624Z,11.90
2022-10-02T05:05:37.342Z,11.90
2022-10-02T05:08:39.405Z,11.90
2022-10-02T05:11:20.409Z,11.90
2022-10-02T05:14:06.013Z,11.90
2022-10-02T05:16:54.656Z,11.90
2022-10-02T05:19:52.326Z,11.90
2022-10-02T05:22:30.632Z,11.90
2022-10-02T05:25:15.795Z,11.90
2022-10-02T05:28:02.122Z,11.90
2022-10-02T05:30:37.597Z,11.90
2022-10-02T05:33:24.069Z,11.90
2022-10-02T05:36:13.740Z,11.90
2022-10-02T05:39:02.424Z,11.90
2022-10-02T05:41:41.162Z,12.00
2022-10-02T05:44:16.119Z,12.00
2022-10-02T05:46:51.250Z,12.00
2022-10-02T05:49:21.564Z,12.00
2022-10-02T05:51:59.501Z,12.00
2022-10-02T05:54:38.157Z,12.00
2022-10-02T05:57:13.281Z,12.00
2022-10-02T05:59:48.727Z,12.10
2022-10-02T06:02:25.066Z,12.10
2022-10-02T06:04:59.570Z,12.10
2022-10-02T06:07:29.926Z,12.20
2022-10-02T06:10:02.121Z,12.20
2022-10-02T06:12:36.370Z,12.10
2022-10-02T06:15:09.200Z,12.10
2022-10-02T06:17:42.082Z,12.20
2022-10-02T06:20:20.434Z,12.20
2022-10-02T06:22:56.470Z,12.30
2022-10-02T06:25:29.078Z,12.20
2022-10-02T06:28:03.045Z,12.30
2022-10-02T06:30:35.247Z,12.30
2022-10-02T06:33:10.644Z,12.30
2022-10-02T06:35:55.125Z,12.40
2022-10-02T06:38:36.588Z,12.50
2022-10-02T06:41:12.771Z,12.40
2022-10-02T06:43:54.026Z,12.50
2022-10-02T06:46:33.834Z,12.50
2022-10-02T06:49:09.755Z,12.50
2022-10-02T06:51:50.533Z,12.60
2022-10-02T06:54:42.967Z,12.60
2022-10-02T06:57:29.522Z,12.60
2022-10-02T07:00:09.369Z,12.60
2022-10-02T07:03:14.073Z,12.70
2022-10-02T07:06:06.633Z,12.80
2022-10-02T07:08:47.174Z,13.00
2022-10-02T07:11:24.366Z,13.00
2022-10-02T07:14:07.846Z,13.10
2022-10-02T07:17:02.555Z,13.20
2022-10-02T07:19:44.872Z,13.10
2022-10-02T07:22:44.032Z,13.10
2022-10-02T07:25:41.622Z,13.20
2022-10-02T07:28:20.241Z,13.30
2022-10-02T07:30:57.281Z,13.40
2022-10-02T07:33:35.115Z,13.50
2022-10-02T07:36:07.723Z,13.50
2022-10-02T07:38:57.289Z,13.50
2022-10-02T07:41:45.313Z,13.60
2022-10-02T07:44:29.899Z,13.90
2022-10-02T07:47:07.194Z,13.90
2022-10-02T07:49:48.529Z,14.00
2022-10-02T07:52:22.801Z,14.00
2022-10-02T07:55:02.147Z,13.80
2022-10-02T07:57:36.618Z,13.80
2022-10-02T08:00:12.928Z,13.70
2022-10-02T08:02:48.834Z,13.80
2022-10-02T08:05:23.293Z,13.80
2022-10-02T08:07:55.184Z,13.70
2022-10-02T08:10:27.651Z,13.70
2022-10-02T08:13:03.675Z,13.70
2022-10-02T08:15:38.515Z,13.70
2022-10-02T08:18:33.761Z,13.70
2022-10-02T08:21:04.127Z,13.70
2022-10-02T08:23:37.601Z,13.50
2022-10-02T08:26:13.202Z,13.50
2022-10-02T08:28:47.765Z,13.40
2022-10-02T08:31:17.168Z,13.40
2022-10-02T08:33:45.267Z,13.40
2022-10-02T08:36:59.392Z,13.40
2022-10-02T08:40:02.359Z,13.30
2022-10-02T08:43:08.427Z,13.40
2022-10-02T08:46:11.948Z,13.40
2022-10-02T08:49:28.806Z,13.40
2022-10-02T08:52:34.925Z,13.50
2022-10-02T08:55:31.241Z,13.40
2022-10-02T08:58:22.991Z,13.40
2022-10-02T09:00:59.549Z,13.40
2022-10-02T09:04:10.553Z,13.50
2022-10-02T09:07:30.193Z,13.50
2022-10-02T09:10:45.693Z,13.40
2022-10-02T09:14:10.011Z,13.50
2022-10-02T09:16:49.999Z,13.50
2022-10-02T09:19:32.177Z,13.60
2022-10-02T09:22:06.883Z,13.70
2022-10-02T09:25:17.945Z,13.80
2022-10-02T09:28:22.998Z,13.80
2022-10-02T09:31:31.571Z,13.90
2022-10-02T09:34:43.009Z,14.00
2022-10-02T09:37:33.511Z,14.10
2022-10-02T09:40:53.492Z,14.20
2022-10-02T09:44:06.204Z,14.30
2022-10-02T09:47:11.725Z,14.40
2022-10-02T09:50:26.288Z,14.60
2022-10-02T09:53:38.553Z,14.80
2022-10-02T09:56:48.563Z,14.80
2022-10-02T09:59:55.381Z,14.90
2022-10-02T10:02:57.139Z,14.90
2022-10-02T10:05:59.098Z,15.00
2022-10-02T10:08:58.263Z,14.90
2022-10-02T10:11:56.810Z,14.90
2022-10-02T10:15:22.876Z,14.90
2022-10-02T10:18:42.846Z,15.10
2022-10-02T10:21:51.153Z,15.10
2022-10-02T10:24:40.703Z,15.30
2022-10-02T10:27:38.669Z,15.20
2022-10-02T10:30:36.238Z,15.20
2022-10-02T10:33:34.578Z,15.20
2022-10-02T10:36:44.520Z,15.20
2022-10-02T10:39:47.114Z,15.30
2022-10-02T10:43:06.608Z,15.50
2022-10-02T10:45:48.404Z,15.50
2022-10-02T10:48:31.507Z,15.60
2022-10-02T10:51:16.493Z,15.70
2022-10-02T10:54:18.238Z,15.60
2022-10-02T10:56:51.399Z,15.60
2022-10-02T10:59:44.649Z,15.50
2022-10-02T11:02:54.924Z,15.60
2022-10-02T11:05:44.947Z,15.60
2022-10-02T11:08:37.373Z,15.50
2022-10-02T11:11:16.435Z,15.50
2022-10-02T11:13:58.197Z,15.50
2022-10-02T11:16:45.308Z,15.60
2022-10-02T11:19:30.842Z,15.50
2022-10-02T11:22:31.917Z,15.50
2022-10-02T11:25:17.035Z,15.60
2022-10-02T11:28:14.882Z,15.50
2022-10-02T11:30:55.972Z,15.40
2022-10-02T11:33:44.328Z,15.40
2022-10-02T11:36:46.419Z,15.60
2022-10-02T11:39:36.078Z,15.70
2022-10-02T11:42:19.801Z,15.60
2022-10-02T11:45:08.632Z,15.80
2022-10-02T11:47:55.029Z,16.00
2022-10-02T11:50:56.916Z,16.00
2022-10-02T11:53:37.880Z,16.10
2022-10-02T11:56:22.689Z,16.00
2022-10-02T11:59:08.257Z,15.90
2022-10-02T12:01:43.116Z,15.80
2022-10-02T12:04:25.320Z,15.90
2022-10-02T12:07:23.542Z,16.00
2022-10-02T12:10:11.886Z,16.10
2022-10-02T12:12:51.504Z,16.30
2022-10-02T12:15:30.916Z,16.50
2022-10-02T12:18:08.137Z,16.60
2022-10-02T12:21:14.381Z,16.80
2022-10-02T12:24:07.202Z,16.80
2022-10-02T12:27:03.987Z,16.80
2022-10-02T12:29:46.841Z,16.70
2022-10-02T12:32:27.408Z,16.60
2022-10-02T12:35:07.271Z,16.70
2022-10-02T12:37:43.611Z,16.80
2022-10-02T12:40:21.882Z,16.90
2022-10-02T12:43:17.399Z,16.90
2022-10-02T12:46:07.988Z,17.10
2022-10-02T12:48:51.891Z,17.40
2022-10-02T12:51:35.855Z,18.30
2022-10-02T12:54:38.721Z,19.60
2022-10-02T12:57:41.391Z,19.50
2022-10-02T13:00:15.380Z,18.70
2022-10-02T13:03:09.055Z,17.90
2022-10-02T13:06:03.473Z,17.60
2022-10-02T13:08:48.324Z,17.50
2022-10-02T13:11:28.087Z,17.30
2022-10-02T13:14:20.189Z,17.10
2022-10-02T13:17:11.632Z,17.40
2022-10-02T13:19:50.681Z,18.40
2022-10-02T13:22:25.843Z,19.10
2022-10-02T13:25:17.559Z,19.60
2022-10-02T13:27:52.783Z,19.80
2022-10-02T13:30:22.957Z,19.70
2022-10-02T13:33:14.461Z,19.50
2022-10-02T13:36:07.095Z,19.70
2022-10-02T13:39:04.625Z,19.10
2022-10-02T13:41:56.004Z,18.70
2022-10-02T13:44:35.642Z,18.60
2022-10-02T13:47:18.282Z,18.40
2022-10-02T13:50:03.163Z,18.20
2022-10-02T13:52:39.048Z,18.40
2022-10-02T13:55:22.900Z,18.70
2022-10-02T13:58:03.475Z,18.50
2022-10-02T14:00:55.057Z,18.30
2022-10-02T14:03:33.826Z,18.40
2022-10-02T14:06:08.087Z,18.70
2022-10-02T14:08:52.800Z,18.90
2022-10-02T14:11:31.363Z,19.00
2022-10-02T14:14:13.755Z,18.90
2022-10-02T14:16:56.426Z,18.60
2022-10-02T14:19:38.294Z,18.40
2022-10-02T14:22:26.890Z,18.40
2022-10-02T14:25:28.029Z,18.20
2022-10-02T14:28:13.482Z,18.10
2022-10-02T14:30:55.606Z,18.00
2022-10-02T14:33:37.350Z,17.80
2022-10-02T14:36:13.692Z,17.70
2022-10-02T14:38:59.691Z,17.60
2022-10-02T14:41:47.150Z,17.70
2022-10-02T14:44:57.326Z,17.70
2022-10-02T14:47:47.042Z,17.70
2022-10-02T14:50:26.742Z,17.60
2022-10-02T14:53:29.820Z,17.60
2022-10-02T14:56:25.671Z,17.60
2022-10-02T14:59:12.650Z,17.50
2022-10-02T15:01:47.013Z,17.30
2022-10-02T15:04:31.762Z,17.30
2022-10-02T15:07:10.239Z,17.20
2022-10-02T15:09:58.966Z,17.10
2022-10-02T15:12:31.626Z,17.10
2022-10-02T15:15:09.769Z,17.10
2022-10-02T15:17:55.739Z,16.90
2022-10-02T15:20:34.095Z,16.80
2022-10-02T15:23:04.655Z,16.80
2022-10-02T15:26:14.033Z,16.80
2022-10-02T15:28:54.790Z,16.80
2022-10-02T15:31:33.238Z,16.70
2022-10-02T15:34:15.699Z,16.70
2022-10-02T15:37:00.976Z,16.80
2022-10-02T15:39:46.689Z,16.80
2022-10-02T15:42:20.092Z,16.80
2022-10-02T15:45:27.570Z,16.90
2022-10-02T15:48:20.168Z,17.00
2022-10-02T15:50:57.226Z,16.80
2022-10-02T15:53:38.595Z,16.60
2022-10-02T15:56:26.146Z,16.40
2022-10-02T15:59:16.422Z,16.40
2022-10-02T16:01:57.248Z,16.20
2022-10-02T16:04:33.067Z,16.20
2022-10-02T16:07:36.814Z,16.10
2022-10-02T16:10:18.761Z,16.10
2022-10-02T16:13:06.271Z,16.10
2022-10-02T16:15:43.907Z,16.10
2022-10-02T16:18:41.589Z,16.20
2022-10-02T16:21:49.407Z,16.30
2022-10-02T16:24:45.900Z,16.30
2022-10-02T16:27:26.184Z,16.30
2022-10-02T16:30:05.283Z,16.20
2022-10-02T16:32:44.443Z,16.20
2022-10-02T16:35:22.246Z,16.10
2022-10-02T16:37:59.885Z,16.00
2022-10-02T16:40:41.039Z,16.00
2022-10-02T16:43:38.086Z,15.90
2022-10-02T16:46:11.599Z,15.80
2022-10-02T16:48:48.931Z,15.80
2022-10-02T16:51:32.243Z,15.70
2022-10-02T16:54:13.618Z,15.60
2022-10-02T16:56:50.642Z,15.50
2022-10-02T16:59:25.711Z,15.30
2022-10-02T17:02:16.977Z,15.30
2022-10-02T17:04:54.948Z,15.30
2022-10-02T17:07:31.471Z,15.20
2022-10-02T17:10:05.994Z,15.10
2022-10-02T17:12:55.997Z,15.10
2022-10-02T17:15:33.222Z,15.00
2022-10-02T17:18:12.323Z,15.00
2022-10-02T17:20:44.804Z,14.90
2022-10-02T17:23:21.895Z,14.90
2022-10-02T17:25:56.474Z,14.80
2022-10-02T17:28:30.768Z,14.70
2022-10-02T17:31:17.639Z,14.70
2022-10-02T17:33:51.359Z,14.70
2022-10-02T17:36:27.131Z,14.60
2022-10-02T17:39:32.921Z,14.60
2022-10-02T17:42:12.195Z,14.50
2022-10-02T17:44:49.831Z,14.50
2022-10-02T17:47:48.270Z,14.50
2022-10-02T17:50:37.949Z,14.40
2022-10-02T17:53:40.910Z,14.30
2022-10-02T17:56:32.845Z,14.30
2022-10-02T17:59:40.048Z,14.30
2022-10-02T18:02:17.526Z,14.20
2022-10-02T18:05:00.790Z,14.20
2022-10-02T18:07:44.591Z,14.10
2022-10-02T18:10:24.270Z,14.00
2022-10-02T18:13:18.387Z,13.90
2022-10-02T18:16:13.381Z,13.80
2022-10-02T18:19:01.317Z,13.70
2022-10-02T18:21:37.820Z,13.60
2022-10-02T18:24:19.558Z,13.50
2022-10-02T18:27:07.721Z,13.40
2022-10-02T18:29:57.537Z,13.30
2022-10-02T18:32:44.782Z,13.20
2022-10-02T18:35:32.134Z,13.10
2022-10-02T18:38:26.338Z,13.00
2022-10-02T18:40:57.293Z,12.90
2022-10-02T18:43:55.067Z,12.70
2022-10-02T18:46:41.727Z,12.70
2022-10-02T18:49:25.683Z,12.60
2022-10-02T18:52:28.377Z,12.60
2022-10-02T18:55:10.615Z,12.60
2022-10-02T18:57:47.793Z,12.50
2022-10-02T19:00:19.743Z,12.40
2022-10-02T19:03:04.355Z,12.30
2022-10-02T19:05:35.332Z,12.20
2022-10-02T19:08:19.851Z,12.10
2022-10-02T19:10:48.048Z,11.90
2022-10-02T19:13:24.028Z,11.80
2022-10-02T19:15:54.029Z,11.70
2022-10-02T19:18:23.516Z,11.60
2022-10-02T19:21:06.455Z,11.50
2022-10-02T19:23:40.366Z,11.40
2022-10-02T19:26:17.848Z,11.30
2022-10-02T19:28:48.237Z,11.20
2022-10-02T19:31:23.299Z,11.10
2022-10-02T19:33:55.002Z,11.00
2022-10-02T19:36:26.619Z,10.90
2022-10-02T19:39:01.572Z,10.90
2022-10-02T19:41:35.471Z,10.80
2022-10-02T19:44:09.144Z,10.70
2022-10-02T19:46:40.713Z,10.60
2022-10-02T19:49:14.321Z,10.50
2022-10-02T19:51:44.166Z,10.30
2022-10-02T19:54:19.804Z,10.20
2022-10-02T19:56:48.419Z,10.20
2022-10-02T19:59:20.132Z,10.20
2022-10-02T20:01:52.605Z,10.20
2022-10-02T20:04:23.661Z,10.00
2022-10-02T20:06:56.950Z,10.00
2022-10-02T20:09:32.802Z,9.90
2022-10-02T20:12:05.805Z,10.00
2022-10-02T20:14:39.656Z,9.80
2022-10-02T20:17:08.907Z,9.80
2022-10-02T20:19:42.228Z,9.70
2022-10-02T20:22:18.925Z,9.70
2022-10-02T20:24:55.723Z,9.50
2022-10-02T20:27:28.719Z,9.40
2022-10-02T20:30:03.582Z,9.30
2022-10-02T20:32:35.873Z,9.30
2022-10-02T20:35:12.242Z,9.20
2022-10-02T20:37:42.946Z,9.20
2022-10-02T20:40:18.822Z,9.10
2022-10-02T20:43:05.961Z,9.10
2022-10-02T20:45:40.298Z,9.00
2022-10-02T20:48:55.643Z,9.00
2022-10-02T20:51:40.826Z,8.90
2022-10-02T20:54:46.934Z,8.80
2022-10-02T20:58:01.206Z,8.70
2022-10-02T21:00:41.885Z,8.70
2022-10-02T21:03:31.833Z,8.70
2022-10-02T21:06:42.027Z,8.70
2022-10-02T21:09:56.341Z,8.60
2022-10-02T21:12:50.387Z,8.60
2022-10-02T21:15:57.423Z,8.60
2022-10-02T21:18:52.225Z,8.60
2022-10-02T21:21:53.719Z,8.70
2022-10-02T21:25:04.947Z,8.70
2022-10-02T21:27:54.185Z,8.70
2022-10-02T21:30:23.578Z,8.80
2022-10-02T21:33:03.177Z,8.80
2022-10-02T21:35:57.810Z,8.80
2022-10-02T21:39:02.442Z,8.70
2022-10-02T21:41:56.680Z,8.70
2022-10-02T21:45:00.342Z,8.60
2022-10-02T21:48:08.227Z,8.50
2022-10-02T21:51:10.409Z,8.40
2022-10-02T21:54:21.365Z,8.30
2022-10-02T21:57:22.201Z,8.30
2022-10-02T22:00:08.013Z,8.20
2022-10-02T22:03:11.491Z,8.20
2022-10-02T22:06:19.283Z,8.20
2022-10-02T22:09:16.563Z,8.20
2022-10-02T22:11:56.274Z,8.20
2022-10-02T22:14:31.069Z,8.10
2022-10-02T22:17:10.857Z,8.10
2022-10-02T22:20:06.031Z,8.00
2022-10-02T22:22:47.862Z,7.90
2022-10-02T22:25:32.643Z,7.80
2022-10-02T22:28:22.226Z,7.70
2022-10-02T22:31:13.162Z,7.70
2022-10-02T22:33:55.032Z,7.60
2022-10-02T22:36:52.894Z,7.60
2022-10-02T22:39:27.461Z,7.60
2022-10-02T22:41:59.666Z,7.50
2022-10-02T22:44:34.594Z,7.40
2022-10-02T22:47:08.092Z,7.30
2022-10-02T22:49:44.106Z,7.30
2022-10-02T22:52:18.214Z,7.30
2022-10-02T22:54:52.426Z,7.30
2022-10-02T22:57:29.010Z,7.20
2022-10-02T23:00:03.262Z,7.20
2022-10-02T23:02:35.199Z,7.20
2022-10-02T23:05:10.895Z,7.20
2022-10-02T23:07:46.263Z,7.10
2022-10-02T23:10:22.050Z,7.10
2022-10-02T23:13:03.887Z,7.10
2022-10-02T23:15:42.569Z,7.00
2022-10-02T23:18:23.063Z,7.00
2022-10-02T23:21:02.505Z,6.90
2022-10-02T23:23:36.173Z,6.90
2022-10-02T23:26:10.355Z,6.80
2022-10-02T23:28:46.692Z,6.80
2022-10-02T23:31:22.093Z,6.80
2022-10-02T23:33:59.454Z,6.80
2022-10-02T23:36:33.932Z,6.70
2022-10-02T23:39:10.714Z,6.70
2022-10-02T23:41:49.667Z,6.60
2022-10-02T23:44:33.111Z,6.60
2022-10-02T23:47:11.889Z,6.50
2022-10-02T23:49:43.937Z,6.50
2022-10-02T23:52:31.143Z,6.40
2022-10-02T23:55:20.052Z,6.50
2022-10-02T23:58:13.287Z,6.40
